Time;durP1;ratioP1;P1;durP2;ratioP2;P2;SDS_P1;SDS_P2;PMS_P1;PMS_P2;Temp;Humidity;BMP_temperature;BMP_pressure;BME280_temperature;BME280_humidity;BME280_pressure;Samples;Min_cycle;Max_cycle;Signal;HPM_P1;HPM_P2
2021/05/14 00:01:23;;;;;;;4.68;1.90;;;;;;;9.31;77.57;100845.59;5113561;27;20097;-41
2021/05/14 00:03:52;;;;;;;4.43;1.60;;;;;;;9.30;77.30;100849.50;5113144;28;20403;-40
2021/05/14 00:06:19;;;;;;;3.35;1.45;;;;;;;9.30;77.57;100843.09;5113672;28;20101;-41
2021/05/14 00:08:47;;;;;;;2.67;1.58;;;;;;;9.28;77.69;100839.78;5112926;28;20046;-40
2021/05/14 00:11:15;;;;;;;3.85;1.95;;;;;;;9.25;77.80;100843.97;5113117;28;20047;-40
2021/05/14 00:13:42;;;;;;;2.92;1.63;;;;;;;9.23;77.73;100842.59;5113218;28;20048;-41
2021/05/14 00:16:10;;;;;;;2.90;1.40;;;;;;;9.22;77.85;100844.56;5112969;28;20119;-42
2021/05/14 00:18:37;;;;;;;2.60;1.40;;;;;;;9.19;77.70;100839.56;5113159;28;20512;-40
2021/05/14 00:21:06;;;;;;;3.20;1.80;;;;;;;9.16;77.81;100831.81;5113192;28;20047;-40
2021/05/14 00:23:33;;;;;;;3.45;1.55;;;;;;;9.14;77.79;100833.22;5112558;28;21085;-42
2021/05/14 00:26:00;;;;;;;3.88;1.90;;;;;;;9.09;77.83;100825.72;5112770;28;20506;-39
2021/05/14 00:28:28;;;;;;;4.93;2.17;;;;;;;9.06;77.83;100831.88;5113130;28;20100;-40
2021/05/14 00:30:55;;;;;;;4.00;2.00;;;;;;;9.05;78.06;100834.94;5112159;28;20039;-39
2021/05/14 00:33:23;;;;;;;5.72;2.90;;;;;;;9.03;78.26;100834.41;5113083;28;20092;-40
2021/05/14 00:35:51;;;;;;;4.50;2.75;;;;;;;9.00;78.27;100835.81;5112659;28;20051;-40
2021/05/14 00:38:19;;;;;;;4.60;2.53;;;;;;;8.99;78.20;100840.53;5112162;28;20387;-41
2021/05/14 00:40:46;;;;;;;6.30;3.60;;;;;;;8.99;78.47;100850.88;5112441;28;20457;-40
2021/05/14 00:43:14;;;;;;;5.65;3.80;;;;;;;8.97;78.57;100851.16;5112578;28;20458;-40
2021/05/14 00:45:41;;;;;;;5.45;3.83;;;;;;;8.94;78.55;100845.34;5111873;28;20482;-41
2021/05/14 00:48:09;;;;;;;5.35;3.60;;;;;;;8.94;78.61;100843.38;5112649;28;20107;-40
2021/05/14 00:50:36;;;;;;;4.45;3.28;;;;;;;8.95;78.73;100844.22;5112112;27;20377;-40
2021/05/14 00:53:04;;;;;;;6.00;2.83;;;;;;;8.93;79.00;100852.03;5112080;28;20043;-40
2021/05/14 00:55:34;;;;;;;4.32;3.05;;;;;;;8.93;79.16;100852.84;5112136;28;20070;-41
2021/05/14 00:58:01;;;;;;;4.80;3.20;;;;;;;8.97;78.99;100855.91;5101217;28;20052;-42
2021/05/14 01:00:29;;;;;;;5.97;3.72;;;;;;;8.98;79.12;100858.41;5112431;28;20043;-41
2021/05/14 01:02:56;;;;;;;5.35;3.33;;;;;;;9.01;79.12;100856.97;5112341;28;20051;-42
2021/05/14 01:05:24;;;;;;;6.65;3.92;;;;;;;9.03;79.01;100853.88;5110408;28;20051;-42
2021/05/14 01:07:52;;;;;;;5.95;2.90;;;;;;;9.03;79.19;100846.38;5108533;28;20043;-42
2021/05/14 01:10:19;;;;;;;5.43;3.10;;;;;;;9.03;79.19;100851.94;5112431;28;20047;-42
2021/05/14 01:12:48;;;;;;;3.70;2.50;;;;;;;9.02;79.32;100846.66;5111572;28;20081;-41
2021/05/14 01:15:17;;;;;;;6.63;3.00;;;;;;;9.02;79.40;100849.44;5111890;28;20538;-41
2021/05/14 01:17:44;;;;;;;6.78;3.20;;;;;;;9.03;79.36;100856.66;5111844;28;20051;-40
2021/05/14 01:20:15;;;;;;;5.72;3.63;;;;;;;9.04;79.46;100855.56;5111764;28;20051;-41
2021/05/14 01:22:43;;;;;;;5.82;3.10;;;;;;;9.02;79.44;100853.06;5111562;28;20530;-41
2021/05/14 01:25:12;;;;;;;5.38;3.20;;;;;;;9.03;79.48;100845.53;5091833;28;20119;-41
2021/05/14 01:27:40;;;;;;;6.63;3.85;;;;;;;9.01;79.65;100845.00;5105661;28;20124;-42
2021/05/14 01:30:08;;;;;;;7.70;3.47;;;;;;;8.99;79.58;100845.31;5111792;28;20580;-40
2021/05/14 01:32:36;;;;;;;4.63;2.63;;;;;;;8.99;79.68;100839.75;5111468;28;20051;-40
2021/05/14 01:35:04;;;;;;;4.45;2.80;;;;;;;8.97;79.71;100842.81;5111061;28;20385;-40
2021/05/14 01:37:32;;;;;;;4.25;2.25;;;;;;;8.96;79.77;100840.31;5111921;28;20111;-41
2021/05/14 01:40:00;;;;;;;5.63;2.92;;;;;;;8.96;80.02;100848.66;5111936;28;20801;-40
2021/05/14 01:42:27;;;;;;;4.25;2.78;;;;;;;8.95;79.96;100844.22;5111052;28;20077;-41
2021/05/14 01:44:54;;;;;;;5.55;2.55;;;;;;;8.95;79.94;100841.44;5111481;28;20052;-41
2021/05/14 01:47:22;;;;;;;6.85;3.17;;;;;;;8.94;80.14;100839.78;5110795;28;20043;-41
2021/05/14 01:49:49;;;;;;;4.18;2.88;;;;;;;8.93;80.11;100847.28;5110146;28;20427;-42
2021/05/14 01:52:17;;;;;;;4.68;2.90;;;;;;;8.92;80.26;100839.22;5111249;28;20040;-41
2021/05/14 01:54:44;;;;;;;4.97;2.70;;;;;;;8.90;80.23;100835.91;5110842;28;20104;-41
2021/05/14 01:57:12;;;;;;;6.68;2.67;;;;;;;8.89;80.43;100826.72;5110874;28;20039;-41
2021/05/14 01:59:40;;;;;;;4.95;2.83;;;;;;;8.90;80.34;100833.13;5111358;28;20035;-40
2021/05/14 02:02:08;;;;;;;6.18;3.53;;;;;;;8.91;80.23;100834.78;5110814;28;20075;-41
2021/05/14 02:04:35;;;;;;;6.00;3.38;;;;;;;8.90;80.23;100836.72;5111068;28;20575;-41
2021/05/14 02:07:02;;;;;;;6.60;3.35;;;;;;;8.92;80.28;100847.56;5111525;28;20059;-41
2021/05/14 02:09:30;;;;;;;5.20;3.30;;;;;;;8.94;80.31;100848.13;5110583;28;20056;-40
2021/05/14 02:11:57;;;;;;;6.03;4.03;;;;;;;8.97;79.98;100850.34;5111190;28;20481;-41
2021/05/14 02:14:26;;;;;;;4.15;3.22;;;;;;;8.97;80.18;100847.56;5111015;28;20101;-40
2021/05/14 02:16:54;;;;;;;6.10;3.97;;;;;;;9.02;80.30;100850.28;5110744;28;20043;-40
2021/05/14 02:19:21;;;;;;;5.53;3.92;;;;;;;9.04;80.34;100842.47;5109990;28;20089;-41
2021/05/14 02:21:48;;;;;;;6.60;4.35;;;;;;;9.03;80.10;100846.38;5111473;28;20044;-41
2021/05/14 02:24:16;;;;;;;5.82;4.50;;;;;;;9.02;80.06;100846.66;5110297;28;20063;-41
2021/05/14 02:26:43;;;;;;;6.55;4.60;;;;;;;9.01;80.35;100842.22;5111191;28;20144;-41
2021/05/14 02:29:11;;;;;;;4.95;3.53;;;;;;;9.04;80.50;100841.63;5110866;28;20113;-41
2021/05/14 02:31:39;;;;;;;5.35;3.47;;;;;;;9.06;80.16;100850.53;5110685;28;20043;-40
2021/05/14 02:34:07;;;;;;;5.97;4.35;;;;;;;9.08;80.51;100845.50;5111035;28;20131;-42
2021/05/14 02:36:34;;;;;;;7.07;4.95;;;;;;;9.10;80.40;100846.06;5110526;28;20047;-41
2021/05/14 02:39:02;;;;;;;7.40;5.28;;;;;;;9.12;80.07;100836.28;5110823;28;20084;-40
2021/05/14 02:41:29;;;;;;;5.90;5.00;;;;;;;9.12;80.19;100844.66;5110778;28;20458;-42
2021/05/14 02:43:56;;;;;;;7.57;5.13;;;;;;;9.11;80.14;100837.41;5109999;28;20462;-41
2021/05/14 02:46:24;;;;;;;6.38;5.10;;;;;;;9.14;80.32;100849.94;5111075;28;20066;-41
2021/05/14 02:48:52;;;;;;;5.80;4.60;;;;;;;9.15;80.37;100835.72;5111098;28;20092;-41
2021/05/14 02:51:19;;;;;;;6.50;4.15;;;;;;;9.16;80.27;100840.16;5106732;28;20043;-40
2021/05/14 02:53:47;;;;;;;5.47;4.70;;;;;;;9.19;80.35;100838.75;5110904;28;20055;-40
2021/05/14 02:56:14;;;;;;;6.18;4.68;;;;;;;9.19;80.04;100841.53;5110355;28;20040;-41
2021/05/14 02:58:41;;;;;;;5.80;4.25;;;;;;;9.20;80.23;100849.56;5110460;28;20044;-41
2021/05/14 03:01:09;;;;;;;7.65;5.43;;;;;;;9.20;80.16;100846.78;5110669;28;20119;-41
2021/05/14 03:03:36;;;;;;;4.38;3.17;;;;;;;9.20;80.03;100854.31;5110840;28;20071;-41
2021/05/14 03:06:05;;;;;;;4.57;3.63;;;;;;;9.21;80.18;100851.25;5110005;28;20047;-40
2021/05/14 03:08:34;;;;;;;4.50;3.80;;;;;;;9.22;80.29;100852.06;5112520;28;20096;-42
2021/05/14 03:11:02;;;;;;;6.15;4.50;;;;;;;9.23;80.08;100848.16;5114135;28;20047;-41
2021/05/14 03:13:29;;;;;;;6.07;4.68;;;;;;;9.24;80.30;100847.88;5114144;28;20051;-40
2021/05/14 03:15:57;;;;;;;5.82;4.65;;;;;;;9.25;80.19;100854.28;5114052;28;20043;-42
2021/05/14 03:18:24;;;;;;;6.05;4.70;;;;;;;9.23;80.07;100857.34;5114228;28;20043;-40
2021/05/14 03:20:54;;;;;;;6.97;4.40;;;;;;;9.21;80.10;100851.25;5113564;28;20048;-41
2021/05/14 03:23:23;;;;;;;6.80;3.78;;;;;;;9.20;79.99;100860.72;5114172;28;20051;-41
2021/05/14 03:25:50;;;;;;;7.10;3.50;;;;;;;9.19;80.07;100856.25;5113507;28;20051;-41
2021/05/14 03:28:17;;;;;;;3.25;2.33;;;;;;;9.20;80.15;100854.31;5114130;28;20097;-40
2021/05/14 03:30:45;;;;;;;3.85;2.53;;;;;;;9.20;80.08;100848.75;5114160;28;20097;-40
2021/05/14 03:33:19;;;;;;;3.75;2.63;;;;;;;9.20;80.05;100852.34;5113592;28;20082;-41
2021/05/14 03:35:47;;;;;;;2.80;1.75;;;;;;;9.20;79.92;100855.16;5113629;28;20542;-40
2021/05/14 03:38:15;;;;;;;2.92;1.77;;;;;;;9.21;80.08;100851.25;5114068;28;20422;-41
2021/05/14 03:40:44;;;;;;;5.18;2.03;;;;;;;9.22;80.19;100854.84;5113334;28;20048;-41
2021/05/14 03:43:11;;;;;;;3.85;2.05;;;;;;;9.23;80.09;100854.56;5113573;28;20044;-41
2021/05/14 03:45:39;;;;;;;2.45;1.55;;;;;;;9.24;80.02;100845.09;5113230;28;20488;-41
2021/05/14 03:48:19;;;;;;;3.53;1.40;;;;;;;9.26;79.80;100855.94;5112774;28;20048;-41
2021/05/14 03:50:49;;;;;;;4.38;2.00;;;;;;;9.27;80.12;100852.03;5113237;28;20032;-40
2021/05/14 03:53:17;;;;;;;5.60;2.05;;;;;;;9.28;80.05;100848.13;5112994;28;20115;-40
2021/05/14 03:55:45;;;;;;;6.95;2.45;;;;;;;9.30;79.89;100851.47;5112384;28;20081;-41
2021/05/14 03:58:13;;;;;;;4.65;2.22;;;;;;;9.29;80.03;100856.19;5111195;28;20928;-41
2021/05/14 04:00:41;;;;;;;4.60;2.40;;;;;;;9.29;79.85;100847.84;5113224;28;20456;-40
2021/05/14 04:03:09;;;;;;;4.22;1.90;;;;;;;9.28;79.74;100848.13;5112442;28;20446;-41
2021/05/14 04:05:40;;;;;;;7.22;2.40;;;;;;;9.29;79.82;100850.63;5112989;28;20533;-40
2021/05/14 04:08:09;;;;;;;7.43;2.38;;;;;;;9.30;79.66;100841.16;5112526;28;20563;-41
2021/05/14 04:10:50;;;;;;;7.72;2.67;;;;;;;9.30;79.76;100846.72;5112928;28;20388;-41
2021/05/14 04:16:07;;;;;;;5.32;2.58;;;;;;;9.30;79.65;100846.72;5109367;28;20138;-41
2021/05/14 04:18:37;;;;;;;4.30;1.95;;;;;;;9.32;79.62;100852.00;5110758;28;20624;-40
2021/05/14 04:21:04;;;;;;;5.45;2.17;;;;;;;9.32;79.55;100850.06;5091355;28;20138;-40
2021/05/14 04:23:32;;;;;;;7.13;2.60;;;;;;;9.34;79.59;100846.97;5106526;28;20053;-41
2021/05/14 04:25:59;;;;;;;5.15;2.45;;;;;;;9.35;79.49;100847.81;5112559;28;20048;-39
2021/05/14 04:28:28;;;;;;;4.70;2.15;;;;;;;9.37;79.37;100845.56;5112478;28;20040;-41
2021/05/14 04:30:55;;;;;;;6.07;1.85;;;;;;;9.39;79.39;100852.50;5112060;28;20089;-40
2021/05/14 04:33:22;;;;;;;5.55;2.20;;;;;;;9.42;79.45;100848.28;5112356;28;20440;-41
2021/05/14 04:35:50;;;;;;;4.70;2.28;;;;;;;9.45;79.33;100848.53;5111918;28;20482;-41
2021/05/14 04:38:18;;;;;;;4.65;2.17;;;;;;;9.47;79.29;100846.28;5111501;28;20059;-41
2021/05/14 04:40:45;;;;;;;5.30;2.50;;;;;;;9.50;79.37;100845.72;5111203;28;20052;-40
2021/05/14 04:43:12;;;;;;;7.22;2.88;;;;;;;9.54;79.20;100845.97;5111672;28;20537;-42
2021/05/14 04:45:41;;;;;;;5.50;2.45;;;;;;;9.56;79.26;100836.19;5112543;28;20093;-41
2021/05/14 04:48:10;;;;;;;7.93;3.58;;;;;;;9.60;79.17;100833.63;5112221;28;20074;-41
2021/05/14 04:50:38;;;;;;;5.85;3.10;;;;;;;9.60;79.14;100842.81;5110636;28;20353;-41
2021/05/14 04:53:07;;;;;;;6.45;3.47;;;;;;;9.61;79.00;100838.91;5111564;28;20047;-40
2021/05/14 04:55:35;;;;;;;6.63;3.30;;;;;;;9.62;79.06;100837.78;5112343;28;20046;-41
2021/05/14 04:58:03;;;;;;;6.60;3.65;;;;;;;9.65;79.01;100840.00;5111779;28;20048;-40
2021/05/14 05:00:30;;;;;;;9.07;4.07;;;;;;;9.66;78.92;100838.88;5111370;28;20154;-41
2021/05/14 05:03:00;;;;;;;6.68;3.33;;;;;;;9.68;78.82;100835.78;5112299;28;20043;-40
2021/05/14 05:05:27;;;;;;;7.93;4.28;;;;;;;9.69;78.92;100834.66;5111053;28;20043;-41
2021/05/14 05:07:55;;;;;;;7.82;3.63;;;;;;;9.70;78.66;100839.13;5110835;28;20047;-40
2021/05/14 05:10:22;;;;;;;5.93;3.97;;;;;;;9.70;78.62;100841.91;5111439;28;20051;-42
2021/05/14 05:12:50;;;;;;;7.15;4.07;;;;;;;9.71;78.37;100840.78;5111573;28;20046;-40
2021/05/14 05:15:17;;;;;;;6.72;3.88;;;;;;;9.72;78.37;100842.44;5111500;28;20787;-40
2021/05/14 05:17:45;;;;;;;5.85;2.80;;;;;;;9.73;78.14;100843.28;5111808;28;20043;-41
2021/05/14 05:20:14;;;;;;;5.43;2.92;;;;;;;9.76;78.21;100842.69;5110919;28;20051;-40
2021/05/14 05:22:41;;;;;;;6.28;2.83;;;;;;;9.77;78.08;100834.03;5111841;28;20066;-41
2021/05/14 05:25:09;;;;;;;4.80;2.60;;;;;;;9.79;77.65;100842.91;5111393;28;20101;-40
2021/05/14 05:27:37;;;;;;;6.50;2.65;;;;;;;9.82;77.48;100852.63;5111436;28;20055;-40
2021/05/14 05:30:05;;;;;;;5.88;2.80;;;;;;;9.84;77.38;100851.22;5111127;28;20048;-41
2021/05/14 05:32:33;;;;;;;6.88;2.58;;;;;;;9.88;77.26;100857.03;5110419;28;20822;-41
2021/05/14 05:35:00;;;;;;;6.47;2.88;;;;;;;9.90;76.97;100852.84;5111258;28;20153;-41
2021/05/14 05:37:28;;;;;;;6.32;2.60;;;;;;;9.92;76.87;100850.59;5111561;28;20067;-40
2021/05/14 05:39:56;;;;;;;5.55;2.22;;;;;;;9.97;76.70;100850.56;5110724;28;20884;-41
2021/05/14 05:42:23;;;;;;;7.38;2.78;;;;;;;10.02;76.76;100853.25;5110283;28;20116;-41
2021/05/14 05:44:50;;;;;;;6.43;3.30;;;;;;;10.06;76.56;100853.50;5111149;28;20051;-41
2021/05/14 05:47:18;;;;;;;5.85;2.60;;;;;;;10.08;76.36;100850.41;5111229;28;20043;-40
2021/05/14 05:49:45;;;;;;;6.18;2.75;;;;;;;10.12;76.19;100857.06;5111460;28;20063;-40
2021/05/14 05:52:13;;;;;;;7.90;2.75;;;;;;;10.16;76.03;100858.97;5110266;28;20063;-40
2021/05/14 05:54:41;;;;;;;6.05;2.78;;;;;;;10.21;75.91;100863.66;5110739;28;20142;-40
2021/05/14 05:57:08;;;;;;;5.72;2.60;;;;;;;10.28;75.88;100855.78;5111004;28;20048;-40
2021/05/14 05:59:38;;;;;;;8.85;3.58;;;;;;;10.36;75.90;100869.09;5110979;28;20566;-41
2021/05/14 06:02:06;;;;;;;7.13;3.38;;;;;;;10.41;75.32;100860.63;5110421;28;20071;-40
2021/05/14 06:04:34;;;;;;;6.30;3.22;;;;;;;10.47;75.08;100862.25;5111183;28;20079;-40
2021/05/14 06:07:01;;;;;;;7.40;3.00;;;;;;;10.53;74.98;100858.28;5111020;28;20052;-40
2021/05/14 06:09:28;;;;;;;7.47;3.63;;;;;;;10.60;74.74;100860.66;5110483;28;20079;-40
2021/05/14 06:11:57;;;;;;;8.40;4.25;;;;;;;10.64;74.55;100862.56;5109506;28;20051;-41
2021/05/14 06:14:25;;;;;;;7.63;4.10;;;;;;;10.68;74.34;100872.00;5109315;28;20054;-43
2021/05/14 06:16:53;;;;;;;8.52;4.75;;;;;;;10.70;74.19;100872.53;5110713;28;20058;-40
2021/05/14 06:19:25;;;;;;;9.30;5.18;;;;;;;10.72;73.80;100877.00;5110976;28;20054;-41
2021/05/14 06:21:52;;;;;;;9.65;4.75;;;;;;;10.71;73.63;100884.53;5110267;28;20090;-40
2021/05/14 06:24:21;;;;;;;8.82;4.68;;;;;;;10.73;73.62;100875.88;5110747;28;20047;-41
2021/05/14 06:26:48;;;;;;;9.57;4.38;;;;;;;10.75;73.33;100881.97;5110540;28;20050;-40
2021/05/14 06:29:16;;;;;;;10.50;5.05;;;;;;;10.77;73.21;100879.72;5107367;28;20044;-41
2021/05/14 06:31:44;;;;;;;6.97;4.45;;;;;;;10.82;73.08;100879.63;5109360;28;20429;-41
2021/05/14 06:34:11;;;;;;;8.50;3.95;;;;;;;10.82;72.72;100882.44;5099680;28;20065;-41
2021/05/14 06:36:39;;;;;;;6.93;3.80;;;;;;;10.87;72.68;100883.19;5109818;28;20055;-40
2021/05/14 06:39:06;;;;;;;7.75;3.80;;;;;;;10.95;72.67;100887.28;5110709;28;20055;-41
2021/05/14 06:41:34;;;;;;;5.15;3.60;;;;;;;11.01;72.44;100892.47;5110717;28;20458;-41
2021/05/14 06:44:01;;;;;;;6.18;3.35;;;;;;;11.05;72.23;100895.50;5113927;28;20075;-42
2021/05/14 06:46:31;;;;;;;8.45;3.58;;;;;;;11.05;71.78;100895.50;5113941;28;20116;-42
2021/05/14 06:48:59;;;;;;;6.28;2.88;;;;;;;11.06;71.98;100897.16;5113159;28;20476;-42
2021/05/14 06:51:26;;;;;;;4.85;3.15;;;;;;;11.09;71.37;100896.56;5114009;28;20048;-41
2021/05/14 06:53:57;;;;;;;5.68;3.30;;;;;;;11.12;71.65;100897.94;5114023;28;20046;-42
2021/05/14 06:56:24;;;;;;;10.70;3.20;;;;;;;11.11;71.30;100908.25;5114452;28;20052;-42
2021/05/14 06:58:54;;;;;;;5.55;2.90;;;;;;;11.10;71.05;100909.41;5113371;28;20047;-41
2021/05/14 07:01:22;;;;;;;6.55;2.50;;;;;;;11.09;71.16;100910.53;5114570;28;20043;-41
2021/05/14 07:03:51;;;;;;;8.90;2.50;;;;;;;11.10;71.23;100909.41;5113618;28;20078;-42
2021/05/14 07:06:19;;;;;;;6.15;2.50;;;;;;;11.13;71.09;100913.56;5112895;28;20395;-42
2021/05/14 07:08:47;;;;;;;5.78;2.50;;;;;;;11.12;70.98;100914.69;5114159;28;20188;-42
2021/05/14 07:11:15;;;;;;;8.68;2.70;;;;;;;11.14;70.66;100918.00;5113486;28;20519;-41
2021/05/14 07:13:42;;;;;;;7.82;3.08;;;;;;;11.17;70.73;100915.44;5113633;28;20054;-42
2021/05/14 07:16:10;;;;;;;9.25;3.10;;;;;;;11.20;70.85;100923.19;5113951;28;20526;-41
2021/05/14 07:18:37;;;;;;;11.10;2.60;;;;;;;11.23;70.54;100924.56;5112897;28;20086;-39
2021/05/14 07:21:06;;;;;;;5.85;2.25;;;;;;;11.22;70.48;100926.53;5114006;28;20048;-40
2021/05/14 07:23:53;;;;;;;9.13;2.80;;;;;;;11.21;70.58;100924.84;5113539;28;20158;-41
2021/05/14 07:26:21;;;;;;;6.13;2.33;;;;;;;11.25;70.49;100925.91;5113199;28;20067;-40
2021/05/14 07:28:48;;;;;;;8.15;2.10;;;;;;;11.33;70.39;100933.63;5111661;28;20044;-39
2021/05/14 07:31:16;;;;;;;5.95;2.03;;;;;;;11.35;70.09;100931.38;5112328;28;20052;-42
2021/05/14 07:33:44;;;;;;;7.65;2.35;;;;;;;11.35;70.41;100931.38;5113680;28;20094;-42
2021/05/14 07:36:13;;;;;;;7.20;2.33;;;;;;;11.35;70.37;100938.91;5113961;28;20047;-41
2021/05/14 07:38:40;;;;;;;6.07;2.17;;;;;;;11.34;70.39;100940.06;5113876;28;20107;-40
2021/05/14 07:41:09;;;;;;;7.78;2.45;;;;;;;11.29;70.34;100943.75;5113781;28;20558;-40
2021/05/14 07:43:36;;;;;;;6.93;2.38;;;;;;;11.26;70.42;100941.56;5113459;28;20044;-40
2021/05/14 07:46:03;;;;;;;8.32;2.20;;;;;;;11.27;70.71;100945.16;5112349;28;20699;-40
2021/05/14 07:48:31;;;;;;;5.03;2.03;;;;;;;11.29;70.66;100946.53;5114074;28;20051;-40
2021/05/14 07:50:58;;;;;;;6.90;2.13;;;;;;;11.31;70.68;100947.06;5112337;28;20570;-41
2021/05/14 07:53:27;;;;;;;7.57;2.00;;;;;;;11.26;70.38;100947.13;5112284;28;20043;-40
2021/05/14 07:55:54;;;;;;;5.15;2.15;;;;;;;11.24;70.35;100945.78;5113004;28;20120;-40
2021/05/14 07:58:22;;;;;;;8.43;2.20;;;;;;;11.23;70.30;100941.31;5113401;28;20059;-40
2021/05/14 08:00:50;;;;;;;8.05;2.15;;;;;;;11.25;70.40;100939.88;5112746;28;20059;-41
2021/05/14 08:03:18;;;;;;;6.25;2.10;;;;;;;11.30;69.99;100944.56;5113558;28;20047;-41
2021/05/14 08:05:47;;;;;;;6.40;2.15;;;;;;;11.33;69.70;100935.59;5111926;28;20592;-41
2021/05/14 08:08:17;;;;;;;6.28;2.25;;;;;;;11.39;69.77;100939.94;5112775;28;20059;-41
2021/05/14 08:10:46;;;;;;;9.85;2.75;;;;;;;11.45;69.63;100949.09;5113043;28;20046;-41
2021/05/14 08:13:21;;;;;;;6.07;2.05;;;;;;;11.52;69.59;100946.75;5113411;28;20156;-40
2021/05/14 08:15:49;;;;;;;7.20;2.40;;;;;;;11.58;69.48;100940.78;5112559;28;20047;-41
2021/05/14 08:18:17;;;;;;;13.55;2.25;;;;;;;11.66;69.24;100947.63;5113062;28;20100;-41
2021/05/14 08:20:45;;;;;;;6.43;1.95;;;;;;;11.70;69.15;100949.53;5112691;28;20059;-40
2021/05/14 08:23:15;;;;;;;5.40;2.35;;;;;;;11.74;68.56;100949.75;5112458;28;20053;-40
2021/05/14 08:25:42;;;;;;;8.40;2.15;;;;;;;11.73;68.71;100957.31;5111290;28;20051;-41
2021/05/14 08:28:11;;;;;;;5.90;1.70;;;;;;;11.76;68.63;100950.31;5111233;28;20124;-40
2021/05/14 08:30:39;;;;;;;7.72;2.20;;;;;;;11.81;68.71;100952.16;5113023;27;20056;-41
2021/05/14 08:33:07;;;;;;;7.35;2.15;;;;;;;11.84;68.61;100955.19;5112672;28;20127;-40
2021/05/14 08:35:36;;;;;;;7.97;2.05;;;;;;;11.85;68.28;100956.84;5112219;28;20078;-42
2021/05/14 08:38:03;;;;;;;7.43;2.40;;;;;;;11.82;68.53;100960.25;5111253;28;20451;-41
2021/05/14 08:40:31;;;;;;;7.25;2.13;;;;;;;11.83;68.70;100950.75;5112687;28;20104;-42
2021/05/14 08:42:58;;;;;;;6.35;2.47;;;;;;;11.83;68.60;100950.75;5112183;28;20047;-40
2021/05/14 08:45:27;;;;;;;6.32;2.13;;;;;;;11.82;68.63;100954.66;5112773;28;20123;-40
2021/05/14 08:47:56;;;;;;;6.63;1.85;;;;;;;11.82;68.70;100951.88;5111922;28;20097;-41
2021/05/14 08:50:26;;;;;;;6.07;2.30;;;;;;;11.86;68.60;100949.28;5111735;28;20573;-40
2021/05/14 08:52:54;;;;;;;7.70;1.92;;;;;;;11.91;68.43;100952.84;5111950;28;20416;-41
2021/05/14 08:55:24;;;;;;;7.00;1.95;;;;;;;11.96;68.45;100955.56;5112605;28;20048;-40
2021/05/14 08:57:52;;;;;;;6.43;2.10;;;;;;;12.02;68.16;100957.09;5111715;28;20043;-42
2021/05/14 09:00:21;;;;;;;6.03;1.75;;;;;;;12.04;67.94;100963.22;5112268;28;20465;-41
2021/05/14 09:02:50;;;;;;;4.15;2.13;;;;;;;12.07;68.01;100968.22;5111998;28;20039;-41
2021/05/14 09:05:26;;;;;;;7.70;2.05;;;;;;;12.07;67.63;100962.63;5111918;28;20392;-41
2021/05/14 09:07:55;;;;;;;4.03;1.92;;;;;;;12.08;67.67;100966.25;5112224;28;20046;-42
2021/05/14 09:10:24;;;;;;;7.85;2.08;;;;;;;12.07;67.70;100959.81;5110364;28;20571;-42
2021/05/14 09:12:53;;;;;;;5.95;1.98;;;;;;;12.15;67.54;100969.50;5110635;28;20471;-40
2021/05/14 09:15:23;;;;;;;6.25;2.00;;;;;;;12.22;67.13;100966.28;5111912;28;20104;-42
2021/05/14 09:18:18;;;;;;;6.57;1.70;;;;;;;12.27;66.14;100969.00;5111456;28;20063;-41
2021/05/14 09:20:47;;;;;;;5.75;1.85;;;;;;;12.26;66.40;100961.72;5087347;28;20056;-41
2021/05/14 09:23:38;;;;;;;5.20;1.55;;;;;;;12.29;65.80;100963.91;5111600;28;20070;-42
2021/05/14 09:26:08;;;;;;;4.90;1.90;;;;;;;12.26;66.27;100956.97;5106263;28;20184;-42
2021/05/14 09:28:37;;;;;;;5.68;1.70;;;;;;;12.32;66.43;100971.69;5111368;28;20042;-40
2021/05/14 09:31:08;;;;;;;7.95;1.80;;;;;;;12.35;66.31;100960.72;5111625;28;20044;-40
2021/05/14 09:33:39;;;;;;;6.38;1.90;;;;;;;12.34;66.16;100961.88;5110738;28;20044;-42
2021/05/14 09:36:08;;;;;;;4.43;1.63;;;;;;;12.33;66.53;100959.38;5111572;28;20084;-42
2021/05/14 09:38:40;;;;;;;6.82;1.90;;;;;;;12.32;66.19;100964.13;5110718;28;20404;-42
2021/05/14 09:41:21;;;;;;;6.80;1.80;;;;;;;12.32;66.49;100969.72;5111969;28;20050;-42
2021/05/14 09:44:05;;;;;;;4.82;1.60;;;;;;;12.32;66.26;100977.28;5111363;28;20101;-42
2021/05/14 09:46:37;;;;;;;5.20;1.70;;;;;;;12.31;66.44;100970.03;5109016;28;20047;-42
2021/05/14 09:49:09;;;;;;;8.55;1.85;;;;;;;12.35;66.09;100968.28;5111469;28;20107;-41
2021/05/14 09:51:46;;;;;;;6.80;1.85;;;;;;;12.36;66.30;100981.16;5111509;28;20047;-41
2021/05/14 09:54:28;;;;;;;10.52;2.17;;;;;;;12.42;66.10;100977.09;5110692;28;20549;-41
2021/05/14 09:57:19;;;;;;;3.60;1.70;;;;;;;12.45;65.97;100978.44;5111262;28;20071;-40
2021/05/14 09:59:47;;;;;;;8.60;2.10;;;;;;;12.45;66.21;100972.84;5110942;28;20109;-41
2021/05/14 10:02:23;;;;;;;6.78;2.03;;;;;;;12.48;66.28;100975.88;5111421;28;20047;-40
2021/05/14 10:04:52;;;;;;;10.05;2.30;;;;;;;12.50;66.26;100976.38;5111305;28;20051;-42
2021/05/14 10:07:20;;;;;;;6.30;1.90;;;;;;;12.51;66.34;100980.84;5110941;28;20047;-42
2021/05/14 10:09:52;;;;;;;7.68;2.22;;;;;;;12.51;66.25;100983.66;5111050;28;20039;-42
2021/05/14 10:12:21;;;;;;;8.48;2.45;;;;;;;12.51;66.21;100980.03;5111388;28;20047;-43
2021/05/14 10:14:50;;;;;;;8.98;2.30;;;;;;;12.49;66.26;100983.13;5110506;28;20489;-41
2021/05/14 10:17:19;;;;;;;6.82;2.22;;;;;;;12.52;66.52;100979.72;5112642;28;20535;-41
2021/05/14 10:19:49;;;;;;;9.32;2.60;;;;;;;12.58;66.30;100972.88;5115319;28;20116;-42
2021/05/14 10:22:18;;;;;;;7.47;2.60;;;;;;;12.59;66.18;100976.50;5115095;28;20052;-41
2021/05/14 10:24:46;;;;;;;7.82;2.58;;;;;;;12.56;65.95;100979.94;5115521;28;20035;-40
2021/05/14 10:27:16;;;;;;;5.18;2.22;;;;;;;12.53;65.83;100975.78;5115404;28;20499;-41
2021/05/14 10:29:45;;;;;;;5.53;2.08;;;;;;;12.51;66.03;100980.03;5114313;28;20556;-41
2021/05/14 10:32:13;;;;;;;6.35;1.95;;;;;;;12.52;66.23;100976.91;5115255;28;20048;-42
2021/05/14 10:34:41;;;;;;;6.47;2.08;;;;;;;12.58;66.11;100972.06;5113912;27;20096;-41
2021/05/14 10:37:08;;;;;;;5.82;2.05;;;;;;;12.63;65.95;100974.72;5115444;28;20044;-42
2021/05/14 10:39:39;;;;;;;6.22;1.95;;;;;;;12.69;65.91;100973.50;5114956;28;20055;-41
2021/05/14 10:42:08;;;;;;;5.63;2.30;;;;;;;12.68;65.55;100972.66;5114617;28;20116;-43
2021/05/14 10:44:47;;;;;;;7.47;2.70;;;;;;;12.69;65.39;100974.31;5113313;28;20128;-40
2021/05/14 10:47:48;;;;;;;6.68;2.33;;;;;;;12.68;65.06;100969.88;5114649;28;20071;-41
2021/05/14 10:50:32;;;;;;;6.32;2.28;;;;;;;12.70;65.44;100966.75;5114244;28;20047;-41
2021/05/14 10:53:19;;;;;;;6.03;2.20;;;;;;;12.78;65.40;100974.44;5105311;28;20070;-41
2021/05/14 10:55:48;;;;;;;6.85;2.10;;;;;;;12.81;65.52;100970.16;5114123;28;20108;-41
2021/05/14 10:58:46;;;;;;;10.20;2.58;;;;;;;12.89;65.28;100970.28;5114665;28;20044;-43
2021/05/14 11:01:28;;;;;;;6.32;2.20;;;;;;;12.89;65.06;100975.88;5114058;28;20545;-41
2021/05/14 11:03:56;;;;;;;6.50;2.22;;;;;;;12.93;65.20;100982.53;5113921;28;20051;-42
2021/05/14 11:06:24;;;;;;;6.57;2.28;;;;;;;12.98;64.95;100981.59;5113121;28;20443;-43
2021/05/14 11:08:59;;;;;;;8.15;2.13;;;;;;;12.99;64.68;100980.44;5114625;28;20470;-42
2021/05/14 11:12:01;;;;;;;7.78;2.20;;;;;;;13.02;65.08;100977.00;5113765;28;20070;-42
2021/05/14 11:14:42;;;;;;;7.90;2.15;;;;;;;13.06;64.54;100980.84;5114536;28;20116;-42
2021/05/14 11:17:10;;;;;;;7.63;2.58;;;;;;;13.11;64.79;100989.97;5113254;28;20048;-42
2021/05/14 11:19:46;;;;;;;6.22;2.28;;;;;;;13.22;64.77;100990.59;5113712;28;20034;-42
2021/05/14 11:22:15;;;;;;;7.63;2.33;;;;;;;13.27;64.38;100987.69;5110539;28;20504;-42
2021/05/14 11:24:49;;;;;;;6.20;2.30;;;;;;;13.27;64.24;100996.09;5113007;28;20565;-42
2021/05/14 11:27:20;;;;;;;6.82;1.85;;;;;;;13.26;64.16;100996.41;5113775;28;20044;-42
2021/05/14 11:29:52;;;;;;;7.37;2.10;;;;;;;13.27;64.19;100998.91;5111623;28;20043;-42
2021/05/14 11:32:29;;;;;;;6.68;2.10;;;;;;;13.28;64.47;100994.13;5112132;28;20051;-41
2021/05/14 11:34:59;;;;;;;5.78;1.90;;;;;;;13.33;64.28;100994.84;5113434;28;20424;-40
2021/05/14 11:37:28;;;;;;;6.57;2.50;;;;;;;13.42;64.15;100998.56;5113394;28;20515;-41
2021/05/14 11:39:57;;;;;;;7.53;2.00;;;;;;;13.43;63.93;100994.59;5112189;28;20051;-42
2021/05/14 11:42:26;;;;;;;5.80;2.00;;;;;;;13.46;63.66;100990.34;5113438;28;20042;-43